sensor_id;sensor_type;location;lat;lon;timestamp;pressure;altitude;pressure_sealevel;temperature;humidity
43488;BME280;29078;41.932;25.554;2023-01-13T00:02:18;99875.41;;;7.70;65.94
43488;BME280;29078;41.932;25.554;2023-01-13T00:04:45;99836.44;;;7.47;65.96
43488;BME280;29078;41.932;25.554;2023-01-13T00:07:11;99929.81;;;7.95;66.06
43488;BME280;29078;41.932;25.554;2023-01-13T00:09:36;99943.09;;;8.11;66.09
43488;BME280;29078;41.932;25.554;2023-01-13T00:12:03;99829.75;;;7.35;65.90
43488;BME280;29078;41.932;25.554;2023-01-13T00:14:28;99822.91;;;7.42;66.08
43488;BME280;29078;41.932;25.554;2023-01-13T00:16:54;99840.44;;;7.51;66.21
43488;BME280;29078;41.932;25.554;2023-01-13T00:19:20;99920.28;;;7.94;66.23
43488;BME280;29078;41.932;25.554;2023-01-13T00:21:45;99916.84;;;7.93;66.17
43488;BME280;29078;41.932;25.554;2023-01-13T00:24:11;99875.47;;;7.60;66.35
43488;BME280;29078;41.932;25.554;2023-01-13T00:26:36;99916.53;;;7.79;66.46
43488;BME280;29078;41.932;25.554;2023-01-13T00:29:01;99850.38;;;7.30;66.38
43488;BME280;29078;41.932;25.554;2023-01-13T00:31:28;99849.19;;;7.42;66.64
43488;BME280;29078;41.932;25.554;2023-01-13T00:33:58;99914.38;;;7.74;66.88
43488;BME280;29078;41.932;25.554;2023-01-13T00:36:24;99836.13;;;7.32;67.02
43488;BME280;29078;41.932;25.554;2023-01-13T00:38:50;99946.72;;;7.92;66.77
43488;BME280;29078;41.932;25.554;2023-01-13T00:41:17;99943.19;;;8.02;66.78
43488;BME280;29078;41.932;25.554;2023-01-13T00:43:43;99944.03;;;8.02;67.15
43488;BME280;29078;41.932;25.554;2023-01-13T00:46:11;99860.41;;;7.44;66.98
43488;BME280;29078;41.932;25.554;2023-01-13T00:48:37;99879.22;;;7.57;67.12
43488;BME280;29078;41.932;25.554;2023-01-13T00:51:10;99834.31;;;7.33;67.10
43488;BME280;29078;41.932;25.554;2023-01-13T00:53:38;99921.34;;;7.83;67.76
43488;BME280;29078;41.932;25.554;2023-01-13T00:56:16;99878.44;;;7.29;67.31
43488;BME280;29078;41.932;25.554;2023-01-13T00:58:43;99934.09;;;7.96;67.44
43488;BME280;29078;41.932;25.554;2023-01-13T01:01:12;99816.53;;;7.27;67.56
43488;BME280;29078;41.932;25.554;2023-01-13T01:03:38;99903.25;;;7.80;67.93
43488;BME280;29078;41.932;25.554;2023-01-13T01:06:11;99929.97;;;7.93;67.54
43488;BME280;29078;41.932;25.554;2023-01-13T01:08:38;99882.16;;;7.54;68.41
43488;BME280;29078;41.932;25.554;2023-01-13T01:11:24;99882.84;;;7.56;68.42
43488;BME280;29078;41.932;25.554;2023-01-13T01:13:51;99930.59;;;7.87;68.50
43488;BME280;29078;41.932;25.554;2023-01-13T01:16:19;99868.81;;;7.48;68.26
43488;BME280;29078;41.932;25.554;2023-01-13T01:18:46;99932.38;;;7.87;68.50
43488;BME280;29078;41.932;25.554;2023-01-13T01:21:13;99850.22;;;7.31;68.16
43488;BME280;29078;41.932;25.554;2023-01-13T01:23:39;99751.28;;;6.51;68.46
43488;BME280;29078;41.932;25.554;2023-01-13T01:26:09;99916.31;;;7.72;68.85
43488;BME280;29078;41.932;25.554;2023-01-13T01:28:35;99880.50;;;7.53;68.49
43488;BME280;29078;41.932;25.554;2023-01-13T01:31:07;99885.78;;;7.53;68.47
43488;BME280;29078;41.932;25.554;2023-01-13T01:33:33;99845.88;;;7.22;69.02
43488;BME280;29078;41.932;25.554;2023-01-13T01:36:02;99924.28;;;7.80;68.64
43488;BME280;29078;41.932;25.554;2023-01-13T01:38:28;99907.25;;;7.67;68.79
43488;BME280;29078;41.932;25.554;2023-01-13T01:40:54;99816.09;;;7.14;69.00
43488;BME280;29078;41.932;25.554;2023-01-13T01:43:21;99909.72;;;7.68;68.86
43488;BME280;29078;41.932;25.554;2023-01-13T01:46:05;99894.19;;;7.57;69.22
43488;BME280;29078;41.932;25.554;2023-01-13T01:48:41;99855.47;;;7.31;69.24
43488;BME280;29078;41.932;25.554;2023-01-13T01:51:09;99825.63;;;7.15;69.33
43488;BME280;29078;41.932;25.554;2023-01-13T01:53:36;99744.69;;;6.65;69.42
43488;BME280;29078;41.932;25.554;2023-01-13T01:56:02;99920.59;;;7.73;69.21
43488;BME280;29078;41.932;25.554;2023-01-13T01:58:30;99859.47;;;7.36;68.96
43488;BME280;29078;41.932;25.554;2023-01-13T02:00:58;99859.63;;;7.34;69.38
43488;BME280;29078;41.932;25.554;2023-01-13T02:03:24;99866.38;;;7.37;69.00
43488;BME280;29078;41.932;25.554;2023-01-13T02:05:50;99855.78;;;7.28;69.48
43488;BME280;29078;41.932;25.554;2023-01-13T02:08:16;99920.75;;;7.72;69.14
43488;BME280;29078;41.932;25.554;2023-01-13T02:10:44;99830.88;;;7.15;69.24
43488;BME280;29078;41.932;25.554;2023-01-13T02:13:12;99895.31;;;7.54;69.44
43488;BME280;29078;41.932;25.554;2023-01-13T02:18:37;99915.28;;;7.65;69.47
43488;BME280;29078;41.932;25.554;2023-01-13T02:30:06;99872.06;;;7.32;69.55
43488;BME280;29078;41.932;25.554;2023-01-13T02:38:36;99834.75;;;7.11;69.62
43488;BME280;29078;41.932;25.554;2023-01-13T02:41:07;99924.66;;;7.68;69.17
43488;BME280;29078;41.932;25.554;2023-01-13T02:43:55;99871.91;;;7.33;69.21
43488;BME280;29078;41.932;25.554;2023-01-13T02:47:07;99919.78;;;7.73;69.21
43488;BME280;29078;41.932;25.554;2023-01-13T02:49:37;99925.78;;;7.65;69.39
43488;BME280;29078;41.932;25.554;2023-01-13T02:52:10;99884.88;;;7.45;69.08
43488;BME280;29078;41.932;25.554;2023-01-13T02:54:38;99792.22;;;6.89;69.27
43488;BME280;29078;41.932;25.554;2023-01-13T02:57:08;99849.69;;;7.28;68.92
43488;BME280;29078;41.932;25.554;2023-01-13T02:59:36;99902.22;;;7.55;69.36
43488;BME280;29078;41.932;25.554;2023-01-13T03:02:03;99878.38;;;7.39;68.95
43488;BME280;29078;41.932;25.554;2023-01-13T03:04:49;99921.13;;;7.77;69.20
43488;BME280;29078;41.932;25.554;2023-01-13T03:10:26;99793.72;;;6.92;68.33
43488;BME280;29078;41.932;25.554;2023-01-13T03:13:13;99892.53;;;7.56;68.48
43488;BME280;29078;41.932;25.554;2023-01-13T03:24:10;99929.84;;;7.77;68.59
43488;BME280;29078;41.932;25.554;2023-01-13T03:26:47;99848.19;;;7.25;68.96
43488;BME280;29078;41.932;25.554;2023-01-13T03:31:45;99927.00;;;7.71;68.84
43488;BME280;29078;41.932;25.554;2023-01-13T03:34:20;99873.03;;;7.31;69.10
43488;BME280;29078;41.932;25.554;2023-01-13T03:36:48;99929.63;;;7.71;68.93
43488;BME280;29078;41.932;25.554;2023-01-13T03:39:20;99892.19;;;7.41;68.42
43488;BME280;29078;41.932;25.554;2023-01-13T03:42:03;99825.69;;;7.05;68.97
43488;BME280;29078;41.932;25.554;2023-01-13T03:44:34;99926.31;;;7.69;68.53
43488;BME280;29078;41.932;25.554;2023-01-13T03:49:44;99939.16;;;7.72;68.79
43488;BME280;29078;41.932;25.554;2023-01-13T03:52:18;99863.66;;;7.28;68.24
43488;BME280;29078;41.932;25.554;2023-01-13T03:55:01;99851.72;;;7.16;68.62
43488;BME280;29078;41.932;25.554;2023-01-13T03:57:33;99884.75;;;7.37;68.82
43488;BME280;29078;41.932;25.554;2023-01-13T04:00:02;99949.88;;;7.78;68.83
43488;BME280;29078;41.932;25.554;2023-01-13T04:02:39;99863.28;;;7.23;68.58
43488;BME280;29078;41.932;25.554;2023-01-13T04:05:09;99962.34;;;7.76;68.59
43488;BME280;29078;41.932;25.554;2023-01-13T04:07:46;99901.25;;;7.29;68.30
43488;BME280;29078;41.932;25.554;2023-01-13T04:10:18;99844.22;;;7.04;68.54
43488;BME280;29078;41.932;25.554;2023-01-13T04:12:51;99908.34;;;7.46;68.78
43488;BME280;29078;41.932;25.554;2023-01-13T04:15:45;99876.47;;;7.14;68.33
43488;BME280;29078;41.932;25.554;2023-01-13T04:20:36;99945.75;;;7.58;68.99
43488;BME280;29078;41.932;25.554;2023-01-13T04:23:02;99905.25;;;7.33;69.00
43488;BME280;29078;41.932;25.554;2023-01-13T04:25:28;99945.91;;;7.56;68.51
43488;BME280;29078;41.932;25.554;2023-01-13T04:27:53;99884.06;;;7.17;69.02
43488;BME280;29078;41.932;25.554;2023-01-13T04:30:19;99920.03;;;7.34;68.85
43488;BME280;29078;41.932;25.554;2023-01-13T04:32:44;99898.00;;;7.17;68.74
43488;BME280;29078;41.932;25.554;2023-01-13T04:35:09;99864.16;;;6.96;68.93
43488;BME280;29078;41.932;25.554;2023-01-13T04:37:35;99881.78;;;7.04;68.71
43488;BME280;29078;41.932;25.554;2023-01-13T04:40:00;99881.94;;;7.03;68.88
43488;BME280;29078;41.932;25.554;2023-01-13T04:42:26;99974.72;;;7.48;69.12
43488;BME280;29078;41.932;25.554;2023-01-13T04:44:51;99931.06;;;7.38;69.02
43488;BME280;29078;41.932;25.554;2023-01-13T04:47:17;99926.41;;;7.31;68.81
43488;BME280;29078;41.932;25.554;2023-01-13T04:49:42;99971.25;;;7.48;68.42
43488;BME280;29078;41.932;25.554;2023-01-13T04:52:07;99995.84;;;7.74;68.41
43488;BME280;29078;41.932;25.554;2023-01-13T04:54:33;99932.03;;;7.37;68.56
43488;BME280;29078;41.932;25.554;2023-01-13T04:56:58;99885.97;;;6.97;68.55
43488;BME280;29078;41.932;25.554;2023-01-13T04:59:23;100013.56;;;7.72;68.43
43488;BME280;29078;41.932;25.554;2023-01-13T05:01:49;99965.03;;;7.49;68.38
43488;BME280;29078;41.932;25.554;2023-01-13T05:04:14;99944.19;;;7.38;68.15
43488;BME280;29078;41.932;25.554;2023-01-13T05:06:41;99887.91;;;6.95;68.21
43488;BME280;29078;41.932;25.554;2023-01-13T05:09:06;99980.44;;;7.61;68.35
43488;BME280;29078;41.932;25.554;2023-01-13T05:11:32;99888.00;;;7.03;67.85
43488;BME280;29078;41.932;25.554;2023-01-13T05:14:16;99963.69;;;7.35;68.56
43488;BME280;29078;41.932;25.554;2023-01-13T05:16:59;99905.34;;;7.14;68.21
43488;BME280;29078;41.932;25.554;2023-01-13T05:19:26;99998.25;;;7.68;67.74
43488;BME280;29078;41.932;25.554;2023-01-13T05:21:52;99895.13;;;6.93;68.29
43488;BME280;29078;41.932;25.554;2023-01-13T05:24:36;99958.44;;;7.35;68.48
43488;BME280;29078;41.932;25.554;2023-01-13T05:27:20;99967.69;;;7.39;67.74
43488;BME280;29078;41.932;25.554;2023-01-13T05:29:46;99974.03;;;7.46;68.33
43488;BME280;29078;41.932;25.554;2023-01-13T05:32:11;99958.06;;;7.30;68.27
43488;BME280;29078;41.932;25.554;2023-01-13T05:34:37;100010.56;;;7.67;68.06
43488;BME280;29078;41.932;25.554;2023-01-13T05:37:02;99979.59;;;7.43;67.94
43488;BME280;29078;41.932;25.554;2023-01-13T05:39:29;99957.25;;;7.29;67.89
43488;BME280;29078;41.932;25.554;2023-01-13T05:42:15;99908.88;;;7.05;67.59
43488;BME280;29078;41.932;25.554;2023-01-13T05:44:59;99902.69;;;6.96;67.43
43488;BME280;29078;41.932;25.554;2023-01-13T05:47:24;99971.19;;;7.30;67.75
43488;BME280;29078;41.932;25.554;2023-01-13T05:49:49;99871.16;;;6.78;67.60
43488;BME280;29078;41.932;25.554;2023-01-13T05:52:15;99908.56;;;6.80;67.74
43488;BME280;29078;41.932;25.554;2023-01-13T05:54:40;99935.66;;;7.08;67.70
43488;BME280;29078;41.932;25.554;2023-01-13T05:57:05;99960.69;;;7.30;68.08
43488;BME280;29078;41.932;25.554;2023-01-13T05:59:31;99894.72;;;6.88;67.80
43488;BME280;29078;41.932;25.554;2023-01-13T06:01:56;100018.22;;;7.60;67.82
43488;BME280;29078;41.932;25.554;2023-01-13T06:04:21;99862.34;;;6.69;68.05
43488;BME280;29078;41.932;25.554;2023-01-13T06:06:47;99917.31;;;6.98;68.25
43488;BME280;29078;41.932;25.554;2023-01-13T06:09:13;99966.81;;;7.21;68.62
43488;BME280;29078;41.932;25.554;2023-01-13T06:11:38;100012.06;;;7.42;68.18
43488;BME280;29078;41.932;25.554;2023-01-13T06:14:04;99992.16;;;7.40;68.68
43488;BME280;29078;41.932;25.554;2023-01-13T06:16:29;99924.44;;;6.88;67.95
43488;BME280;29078;41.932;25.554;2023-01-13T06:18:54;100040.69;;;7.45;68.01
43488;BME280;29078;41.932;25.554;2023-01-13T06:21:20;100003.94;;;7.36;67.71
43488;BME280;29078;41.932;25.554;2023-01-13T06:23:45;100033.72;;;7.54;68.56
43488;BME280;29078;41.932;25.554;2023-01-13T06:26:15;99894.25;;;6.65;68.40
43488;BME280;29078;41.932;25.554;2023-01-13T06:28:42;100009.47;;;7.32;68.24
43488;BME280;29078;41.932;25.554;2023-01-13T06:31:08;100037.88;;;7.56;68.61
43488;BME280;29078;41.932;25.554;2023-01-13T06:33:41;99926.22;;;6.88;68.79
43488;BME280;29078;41.932;25.554;2023-01-13T06:36:24;100038.56;;;7.58;68.37
43488;BME280;29078;41.932;25.554;2023-01-13T06:38:56;100001.66;;;7.23;68.70
43488;BME280;29078;41.932;25.554;2023-01-13T06:41:25;99962.94;;;6.97;68.43
43488;BME280;29078;41.932;25.554;2023-01-13T06:44:10;100055.53;;;7.64;68.39
43488;BME280;29078;41.932;25.554;2023-01-13T06:46:36;100033.88;;;7.52;68.45
43488;BME280;29078;41.932;25.554;2023-01-13T06:49:01;100063.81;;;7.69;68.91
43488;BME280;29078;41.932;25.554;2023-01-13T06:51:27;99976.66;;;7.19;68.25
43488;BME280;29078;41.932;25.554;2023-01-13T06:53:52;99971.19;;;7.03;68.58
43488;BME280;29078;41.932;25.554;2023-01-13T06:56:17;100035.69;;;7.42;68.92
43488;BME280;29078;41.932;25.554;2023-01-13T06:58:43;100020.22;;;7.39;68.60
43488;BME280;29078;41.932;25.554;2023-01-13T07:01:08;99962.38;;;6.94;68.47
43488;BME280;29078;41.932;25.554;2023-01-13T07:03:34;100038.22;;;7.44;68.90
43488;BME280;29078;41.932;25.554;2023-01-13T07:05:59;100069.09;;;7.59;68.93
43488;BME280;29078;41.932;25.554;2023-01-13T07:08:26;99968.28;;;7.06;68.57
43488;BME280;29078;41.932;25.554;2023-01-13T07:10:51;100039.56;;;7.48;68.50
43488;BME280;29078;41.932;25.554;2023-01-13T07:13:17;100013.22;;;7.30;68.38
43488;BME280;29078;41.932;25.554;2023-01-13T07:16:03;100075.97;;;7.70;68.39
43488;BME280;29078;41.932;25.554;2023-01-13T07:18:30;100058.06;;;7.56;68.71
43488;BME280;29078;41.932;25.554;2023-01-13T07:21:04;100085.06;;;7.76;69.11
43488;BME280;29078;41.932;25.554;2023-01-13T07:23:33;100036.13;;;7.38;68.88
43488;BME280;29078;41.932;25.554;2023-01-13T07:25:58;99933.16;;;6.79;68.35
43488;BME280;29078;41.932;25.554;2023-01-13T07:28:25;100076.56;;;7.64;68.68
43488;BME280;29078;41.932;25.554;2023-01-13T07:30:51;100011.03;;;7.25;68.83
43488;BME280;29078;41.932;25.554;2023-01-13T07:33:16;99942.94;;;6.87;68.42
43488;BME280;29078;41.932;25.554;2023-01-13T07:35:43;100046.34;;;7.50;69.07
43488;BME280;29078;41.932;25.554;2023-01-13T07:38:09;100023.03;;;7.28;68.74
43488;BME280;29078;41.932;25.554;2023-01-13T07:40:35;100065.69;;;7.49;68.59
43488;BME280;29078;41.932;25.554;2023-01-13T07:43:00;100050.38;;;7.35;68.72
43488;BME280;29078;41.932;25.554;2023-01-13T07:45:44;100050.53;;;7.33;68.49
43488;BME280;29078;41.932;25.554;2023-01-13T07:48:10;100023.91;;;7.19;68.90
43488;BME280;29078;41.932;25.554;2023-01-13T07:50:35;100056.72;;;7.42;69.14
43488;BME280;29078;41.932;25.554;2023-01-13T07:53:00;100088.81;;;7.46;68.79
43488;BME280;29078;41.932;25.554;2023-01-13T07:55:26;100113.94;;;7.58;68.89
43488;BME280;29078;41.932;25.554;2023-01-13T07:57:51;100088.88;;;7.63;68.98
43488;BME280;29078;41.932;25.554;2023-01-13T08:00:17;99990.84;;;6.98;68.78
43488;BME280;29078;41.932;25.554;2023-01-13T08:02:42;100033.69;;;7.26;68.72
43488;BME280;29078;41.932;25.554;2023-01-13T08:05:08;100021.97;;;7.21;68.62
43488;BME280;29078;41.932;25.554;2023-01-13T08:07:34;100073.44;;;7.51;68.57
43488;BME280;29078;41.932;25.554;2023-01-13T08:10:00;100064.72;;;7.50;68.68
43488;BME280;29078;41.932;25.554;2023-01-13T08:12:25;100011.91;;;7.16;68.47
43488;BME280;29078;41.932;25.554;2023-01-13T08:15:09;100064.97;;;7.57;68.29
43488;BME280;29078;41.932;25.554;2023-01-13T08:17:35;100057.78;;;7.59;68.21
43488;BME280;29078;41.932;25.554;2023-01-13T08:20:02;100063.31;;;7.56;67.99
43488;BME280;29078;41.932;25.554;2023-01-13T08:22:28;99974.06;;;7.09;68.11
43488;BME280;29078;41.932;25.554;2023-01-13T08:24:55;100094.47;;;7.78;68.16
43488;BME280;29078;41.932;25.554;2023-01-13T08:27:21;100058.88;;;7.56;67.91
43488;BME280;29078;41.932;25.554;2023-01-13T08:29:46;100050.19;;;7.56;68.25
43488;BME280;29078;41.932;25.554;2023-01-13T08:32:12;100057.34;;;7.63;68.02
43488;BME280;29078;41.932;25.554;2023-01-13T08:34:37;100079.81;;;7.76;68.32
43488;BME280;29078;41.932;25.554;2023-01-13T08:37:03;100046.22;;;7.42;68.09
43488;BME280;29078;41.932;25.554;2023-01-13T08:39:28;100060.78;;;7.64;68.13
43488;BME280;29078;41.932;25.554;2023-01-13T08:41:53;100072.38;;;7.71;67.69
43488;BME280;29078;41.932;25.554;2023-01-13T08:44:19;100073.50;;;7.69;68.13
43488;BME280;29078;41.932;25.554;2023-01-13T08:46:44;100084.59;;;7.62;68.13
43488;BME280;29078;41.932;25.554;2023-01-13T08:49:10;100059.44;;;7.60;68.28
43488;BME280;29078;41.932;25.554;2023-01-13T08:51:35;100104.38;;;7.84;67.91
43488;BME280;29078;41.932;25.554;2023-01-13T08:54:01;99989.78;;;7.19;67.75
43488;BME280;29078;41.932;25.554;2023-01-13T08:56:28;100076.13;;;7.69;68.07
43488;BME280;29078;41.932;25.554;2023-01-13T08:58:57;99964.78;;;7.15;67.80
43488;BME280;29078;41.932;25.554;2023-01-13T09:01:22;100017.88;;;7.46;67.43
43488;BME280;29078;41.932;25.554;2023-01-13T09:03:48;100080.97;;;7.91;67.92
43488;BME280;29078;41.932;25.554;2023-01-13T09:06:14;100104.75;;;8.17;67.66
43488;BME280;29078;41.932;25.554;2023-01-13T09:08:39;100095.59;;;8.21;67.24
43488;BME280;29078;41.932;25.554;2023-01-13T09:11:05;100098.47;;;8.27;67.25
43488;BME280;29078;41.932;25.554;2023-01-13T09:13:50;99972.63;;;7.52;67.37
43488;BME280;29078;41.932;25.554;2023-01-13T09:16:16;99933.53;;;7.39;66.96
43488;BME280;29078;41.932;25.554;2023-01-13T09:18:41;99995.78;;;7.84;67.13
43488;BME280;29078;41.932;25.554;2023-01-13T09:21:10;100009.97;;;7.91;66.96
43488;BME280;29078;41.932;25.554;2023-01-13T09:23:36;100046.09;;;7.89;66.82
43488;BME280;29078;41.932;25.554;2023-01-13T09:26:01;99908.84;;;7.32;66.86
43488;BME280;29078;41.932;25.554;2023-01-13T09:28:27;100077.44;;;8.45;66.23
43488;BME280;29078;41.932;25.554;2023-01-13T09:30:53;100018.41;;;8.12;66.43
43488;BME280;29078;41.932;25.554;2023-01-13T09:33:18;99984.66;;;7.90;66.33
43488;BME280;29078;41.932;25.554;2023-01-13T09:36:02;100025.41;;;8.21;66.58
43488;BME280;29078;41.932;25.554;2023-01-13T09:38:28;100022.59;;;8.05;66.53
43488;BME280;29078;41.932;25.554;2023-01-13T09:40:53;100053.63;;;8.47;66.21
43488;BME280;29078;41.932;25.554;2023-01-13T09:43:25;100014.75;;;8.23;66.55
43488;BME280;29078;41.932;25.554;2023-01-13T09:46:16;100073.00;;;8.64;66.27
43488;BME280;29078;41.932;25.554;2023-01-13T09:49:01;100033.16;;;8.41;66.05
43488;BME280;29078;41.932;25.554;2023-01-13T09:51:38;99988.97;;;8.26;65.51
43488;BME280;29078;41.932;25.554;2023-01-13T09:54:15;100033.19;;;8.67;65.35
43488;BME280;29078;41.932;25.554;2023-01-13T09:56:45;100054.91;;;8.86;65.57
43488;BME280;29078;41.932;25.554;2023-01-13T09:59:11;100065.50;;;8.95;65.48
43488;BME280;29078;41.932;25.554;2023-01-13T10:01:43;99906.22;;;8.03;65.32
43488;BME280;29078;41.932;25.554;2023-01-13T10:04:13;100062.72;;;8.96;65.17
43488;BME280;29078;41.932;25.554;2023-01-13T10:06:41;100055.34;;;9.00;65.01
43488;BME280;29078;41.932;25.554;2023-01-13T10:09:21;100007.91;;;8.74;64.99
43488;BME280;29078;41.932;25.554;2023-01-13T10:11:48;99975.41;;;8.57;64.81
43488;BME280;29078;41.932;25.554;2023-01-13T10:15:12;100037.63;;;9.10;64.57
43488;BME280;29078;41.932;25.554;2023-01-13T10:17:44;100053.63;;;9.16;64.17
43488;BME280;29078;41.932;25.554;2023-01-13T10:23:12;99927.88;;;8.58;64.06
43488;BME280;29078;41.932;25.554;2023-01-13T10:25:59;99996.78;;;9.06;63.55
43488;BME280;29078;41.932;25.554;2023-01-13T10:28:28;99936.22;;;8.80;63.66
43488;BME280;29078;41.932;25.554;2023-01-13T10:30:54;99943.53;;;8.94;63.66
43488;BME280;29078;41.932;25.554;2023-01-13T10:33:25;100028.59;;;9.54;62.78
43488;BME280;29078;41.932;25.554;2023-01-13T10:35:59;100021.03;;;9.60;62.84
43488;BME280;29078;41.932;25.554;2023-01-13T10:40:54;100020.78;;;9.79;62.92
43488;BME280;29078;41.932;25.554;2023-01-13T10:43:20;99918.97;;;9.28;62.53
43488;BME280;29078;41.932;25.554;2023-01-13T10:46:10;100015.22;;;10.06;61.69
43488;BME280;29078;41.932;25.554;2023-01-13T10:48:38;100015.28;;;10.23;62.60
43488;BME280;29078;41.932;25.554;2023-01-13T10:53:49;100014.94;;;10.34;61.69
43488;BME280;29078;41.932;25.554;2023-01-13T10:56:16;99886.41;;;9.61;61.60
43488;BME280;29078;41.932;25.554;2023-01-13T10:58:42;99932.94;;;9.86;61.00
43488;BME280;29078;41.932;25.554;2023-01-13T11:01:20;99955.38;;;9.91;60.92
43488;BME280;29078;41.932;25.554;2023-01-13T11:03:50;99948.28;;;9.83;61.59
43488;BME280;29078;41.932;25.554;2023-01-13T11:06:21;100001.72;;;10.17;61.78
43488;BME280;29078;41.932;25.554;2023-01-13T11:08:49;99893.97;;;9.40;61.64
43488;BME280;29078;41.932;25.554;2023-01-13T11:13:55;99967.88;;;9.88;61.42
43488;BME280;29078;41.932;25.554;2023-01-13T11:16:45;99938.00;;;9.64;61.33
43488;BME280;29078;41.932;25.554;2023-01-13T11:19:16;99977.09;;;9.76;61.71
43488;BME280;29078;41.932;25.554;2023-01-13T11:21:57;99951.53;;;9.69;61.86
43488;BME280;29078;41.932;25.554;2023-01-13T11:24:37;99916.72;;;9.49;61.29
43488;BME280;29078;41.932;25.554;2023-01-13T11:30:08;99977.47;;;10.06;61.27
43488;BME280;29078;41.932;25.554;2023-01-13T11:32:41;99975.81;;;10.13;61.05
43488;BME280;29078;41.932;25.554;2023-01-13T11:35:16;99941.34;;;9.98;61.34
43488;BME280;29078;41.932;25.554;2023-01-13T11:37:50;99844.06;;;9.30;61.41
43488;BME280;29078;41.932;25.554;2023-01-13T11:40:24;99970.72;;;10.11;61.34
43488;BME280;29078;41.932;25.554;2023-01-13T11:43:07;99937.41;;;9.94;61.35
43488;BME280;29078;41.932;25.554;2023-01-13T11:45:51;99964.78;;;10.17;61.46
43488;BME280;29078;41.932;25.554;2023-01-13T11:48:22;99931.97;;;9.96;60.85
43488;BME280;29078;41.932;25.554;2023-01-13T11:51:17;99964.94;;;10.16;60.73
43488;BME280;29078;41.932;25.554;2023-01-13T11:59:01;99964.13;;;10.15;61.10
43488;BME280;29078;41.932;25.554;2023-01-13T12:07:19;99865.81;;;9.56;61.75
43488;BME280;29078;41.932;25.554;2023-01-13T12:13:02;99952.91;;;10.13;61.36
43488;BME280;29078;41.932;25.554;2023-01-13T12:15:53;99888.94;;;9.71;62.07
43488;BME280;29078;41.932;25.554;2023-01-13T12:18:39;99953.06;;;10.12;62.30
43488;BME280;29078;41.932;25.554;2023-01-13T12:21:23;99915.31;;;9.79;62.29
43488;BME280;29078;41.932;25.554;2023-01-13T12:26:21;99930.16;;;9.88;62.32
43488;BME280;29078;41.932;25.554;2023-01-13T12:28:52;99915.13;;;9.80;62.01
43488;BME280;29078;41.932;25.554;2023-01-13T12:31:19;99797.56;;;9.05;62.64
43488;BME280;29078;41.932;25.554;2023-01-13T12:47:45;99958.31;;;9.71;62.62
43488;BME280;29078;41.932;25.554;2023-01-13T12:52:56;99938.81;;;9.56;62.47
43488;BME280;29078;41.932;25.554;2023-01-13T13:05:56;99973.25;;;9.63;63.08
43488;BME280;29078;41.932;25.554;2023-01-13T13:08:42;99975.03;;;9.54;63.26
43488;BME280;29078;41.932;25.554;2023-01-13T13:13:56;99818.44;;;8.48;63.50
43488;BME280;29078;41.932;25.554;2023-01-13T13:24:34;99977.16;;;9.42;63.46
43488;BME280;29078;41.932;25.554;2023-01-13T13:29:58;99926.47;;;9.06;63.21
43488;BME280;29078;41.932;25.554;2023-01-13T13:40:39;99955.81;;;9.11;63.19
43488;BME280;29078;41.932;25.554;2023-01-13T13:43:23;99889.91;;;8.69;63.43
43488;BME280;29078;41.932;25.554;2023-01-13T13:46:44;99987.50;;;9.36;63.04
43488;BME280;29078;41.932;25.554;2023-01-13T13:49:17;99992.28;;;9.32;63.64
43488;BME280;29078;41.932;25.554;2023-01-13T13:54:44;99929.72;;;8.92;63.06
43488;BME280;29078;41.932;25.554;2023-01-13T13:57:21;99955.97;;;9.10;62.90
43488;BME280;29078;41.932;25.554;2023-01-13T13:59:52;99946.69;;;8.98;63.02
43488;BME280;29078;41.932;25.554;2023-01-13T14:02:25;99899.78;;;8.67;63.40
43488;BME280;29078;41.932;25.554;2023-01-13T14:05:06;99985.16;;;9.24;62.95
43488;BME280;29078;41.932;25.554;2023-01-13T14:07:41;99955.34;;;8.90;63.09
43488;BME280;29078;41.932;25.554;2023-01-13T14:10:13;100002.63;;;9.26;62.97
43488;BME280;29078;41.932;25.554;2023-01-13T14:12:40;99929.41;;;8.69;63.43
43488;BME280;29078;41.932;25.554;2023-01-13T14:15:27;99999.16;;;9.25;63.11
43488;BME280;29078;41.932;25.554;2023-01-13T14:17:53;99911.44;;;8.65;63.44
43488;BME280;29078;41.932;25.554;2023-01-13T14:20:19;99970.28;;;9.07;63.57
43488;BME280;29078;41.932;25.554;2023-01-13T14:22:48;99974.88;;;9.05;63.43
43488;BME280;29078;41.932;25.554;2023-01-13T14:25:29;100003.25;;;9.19;63.50
43488;BME280;29078;41.932;25.554;2023-01-13T14:27:56;99908.97;;;8.63;63.68
43488;BME280;29078;41.932;25.554;2023-01-13T14:30:25;100006.03;;;9.18;63.66
43488;BME280;29078;41.932;25.554;2023-01-13T14:32:51;99944.97;;;8.88;63.48
43488;BME280;29078;41.932;25.554;2023-01-13T14:35:17;99894.13;;;8.54;63.67
43488;BME280;29078;41.932;25.554;2023-01-13T14:37:43;100000.47;;;9.21;63.52
43488;BME280;29078;41.932;25.554;2023-01-13T14:40:38;99997.16;;;9.19;63.66
43488;BME280;29078;41.932;25.554;2023-01-13T14:43:20;99978.59;;;8.95;63.72
43488;BME280;29078;41.932;25.554;2023-01-13T14:45:58;99936.13;;;8.64;63.56
43488;BME280;29078;41.932;25.554;2023-01-13T14:48:32;99989.97;;;8.95;64.13
43488;BME280;29078;41.932;25.554;2023-01-13T14:51:07;100021.16;;;9.08;64.51
43488;BME280;29078;41.932;25.554;2023-01-13T14:53:38;100023.94;;;9.06;64.36
43488;BME280;29078;41.932;25.554;2023-01-13T14:56:40;100022.59;;;9.02;64.74
43488;BME280;29078;41.932;25.554;2023-01-13T15:01:58;100019.13;;;9.02;64.97
43488;BME280;29078;41.932;25.554;2023-01-13T15:04:26;99953.66;;;8.55;65.07
43488;BME280;29078;41.932;25.554;2023-01-13T15:06:54;100011.28;;;8.84;65.06
43488;BME280;29078;41.932;25.554;2023-01-13T15:09:26;99941.75;;;8.43;65.18
43488;BME280;29078;41.932;25.554;2023-01-13T15:11:52;99956.09;;;8.48;65.28
43488;BME280;29078;41.932;25.554;2023-01-13T15:14:24;100014.22;;;8.81;65.16
43488;BME280;29078;41.932;25.554;2023-01-13T15:16:50;100030.69;;;8.83;65.77
43488;BME280;29078;41.932;25.554;2023-01-13T15:19:15;99939.03;;;8.17;65.31